createdAt,value
2022-09-05T00:01:41.337Z,77498.91
2022-09-05T00:04:24.191Z,77504.84
2022-09-05T00:07:02.871Z,77506.84
2022-09-05T00:09:57.179Z,77504.84
2022-09-05T00:12:25.283Z,77518.78
2022-09-05T00:15:20.962Z,77518.78
2022-09-05T00:22:57.767Z,77520.75
2022-09-05T00:24:31.664Z,77512.81
2022-09-05T00:24:36.939Z,77520.75
2022-09-05T00:27:10.451Z,77520.75
2022-09-05T00:30:47.314Z,77508.84
2022-09-05T00:32:26.528Z,77512.81
2022-09-05T00:34:59.247Z,77520.75
2022-09-05T00:37:33.738Z,77528.72
2022-09-05T00:40:35.665Z,77530.69
2022-09-05T00:43:07.837Z,77534.69
2022-09-05T00:45:44.608Z,77538.66
2022-09-05T00:48:26.057Z,77536.66
2022-09-05T00:51:01.275Z,77536.66
2022-09-05T00:53:48.850Z,77536.66
2022-09-05T00:56:45.457Z,77538.66
2022-09-05T00:59:24.175Z,77532.69
2022-09-05T01:02:01.439Z,77534.69
2022-09-05T01:04:47.317Z,77540.63
2022-09-05T01:07:49.604Z,77540.63
2022-09-05T01:10:31.290Z,77548.59
2022-09-05T01:13:25.659Z,77552.56
2022-09-05T01:16:17.213Z,77554.56
2022-09-05T01:18:55.993Z,77564.50
2022-09-05T01:21:48.174Z,77562.50
2022-09-05T01:24:42.111Z,77564.50
2022-09-05T01:28:06.793Z,77584.38
2022-09-05T01:30:38.539Z,77594.31
2022-09-05T01:33:19.344Z,77594.31
2022-09-05T01:36:04.658Z,77604.25
2022-09-05T01:38:48.324Z,77596.28
2022-09-05T01:41:52.711Z,77612.19
2022-09-05T01:44:22.394Z,77612.19
2022-09-05T01:47:09.642Z,77616.16
2022-09-05T01:49:55.684Z,77622.13
2022-09-05T01:52:47.752Z,77642.00
2022-09-05T01:56:04.858Z,77640.03
2022-09-05T01:58:58.023Z,77634.06
2022-09-05T02:02:04.044Z,77646.00
2022-09-05T02:04:53.631Z,77644.00
2022-09-05T02:07:44.651Z,77640.03
2022-09-05T02:10:40.627Z,77646.00
2022-09-05T02:13:22.456Z,77651.94
2022-09-05T02:16:22.579Z,77661.88
2022-09-05T02:19:12.274Z,77653.94
2022-09-05T02:21:57.228Z,77657.91
2022-09-05T02:24:33.196Z,77659.91
2022-09-05T02:28:05.001Z,77667.84
2022-09-05T02:30:25.643Z,77675.81
2022-09-05T02:33:19.827Z,77669.84
2022-09-05T02:35:55.076Z,77667.84
2022-09-05T02:41:44.255Z,77677.78
2022-09-05T02:45:17.257Z,77677.78
2022-09-05T02:45:20.339Z,77671.81
2022-09-05T02:48:00.754Z,77683.75
2022-09-05T02:57:28.934Z,77683.75
2022-09-05T02:57:35.239Z,77677.78
2022-09-05T02:57:41.586Z,77691.72
2022-09-05T03:00:17.283Z,77683.75
2022-09-05T03:03:02.162Z,77687.72
2022-09-05T03:05:56.019Z,77695.69
2022-09-05T03:08:41.261Z,77705.63
2022-09-05T03:11:13.754Z,77701.66
2022-09-05T03:14:14.235Z,77701.66
2022-09-05T03:17:02.099Z,77713.56
2022-09-05T03:19:47.079Z,77711.59
2022-09-05T03:22:47.993Z,77719.53
2022-09-05T03:25:35.811Z,77729.47
2022-09-05T03:28:03.871Z,77731.47
2022-09-05T03:30:55.775Z,77733.47
2022-09-05T03:33:52.127Z,77733.47
2022-09-05T03:37:05.402Z,77735.44
2022-09-05T03:39:59.399Z,77725.50
2022-09-05T03:43:19.603Z,77725.50
2022-09-05T03:46:20.529Z,77719.53
2022-09-05T03:48:56.215Z,77737.44
2022-09-05T03:57:08.398Z,77739.41
2022-09-05T03:57:17.819Z,77755.31
2022-09-05T03:58:55.337Z,77749.34
2022-09-05T04:04:33.763Z,77761.28
2022-09-05T04:08:07.434Z,77759.28
2022-09-05T04:08:17.180Z,77747.38
2022-09-05T04:10:59.519Z,77765.25
2022-09-05T04:13:33.372Z,77767.25
2022-09-05T04:16:22.042Z,77753.34
2022-09-05T04:18:56.509Z,77753.34
2022-09-05T04:21:36.272Z,77757.31
2022-09-05T04:24:09.669Z,77765.25
2022-09-05T04:27:01.236Z,77765.25
2022-09-05T04:30:38.864Z,77753.34
2022-09-05T04:32:59.255Z,77777.19
2022-09-05T04:35:41.410Z,77773.22
2022-09-05T04:38:14.189Z,77781.16
2022-09-05T04:40:46.908Z,77781.16
2022-09-05T04:43:34.832Z,77781.16
2022-09-05T04:46:15.715Z,77767.25
2022-09-05T04:49:16.910Z,77755.31
2022-09-05T04:52:31.026Z,77759.28
2022-09-05T04:55:10.007Z,77761.28
2022-09-05T04:58:10.923Z,77755.31
2022-09-05T05:06:00.245Z,77751.34
2022-09-05T05:06:09.584Z,77731.47
2022-09-05T05:06:51.280Z,77729.47
2022-09-05T05:09:29.438Z,77725.50
2022-09-05T05:17:54.384Z,77721.53
2022-09-05T05:17:55.652Z,77701.66
2022-09-05T05:18:37.734Z,77695.69
2022-09-05T05:21:14.613Z,77683.75
2022-09-05T05:23:47.267Z,77665.88
2022-09-05T05:26:21.331Z,77663.88
2022-09-05T05:29:05.570Z,77661.88
2022-09-05T05:31:35.373Z,77646.00
2022-09-05T05:34:09.764Z,77634.06
2022-09-05T05:37:00.915Z,77622.13
2022-09-05T05:39:30.145Z,77610.22
2022-09-05T05:41:58.958Z,77596.28
2022-09-05T05:44:54.744Z,77576.41
2022-09-05T05:47:31.595Z,77580.41
2022-09-05T05:50:21.607Z,77574.44
2022-09-05T05:52:58.685Z,77574.44
2022-09-05T05:55:52.652Z,77568.47
2022-09-05T05:58:35.048Z,77564.50
2022-09-05T06:01:04.716Z,77564.50
2022-09-05T06:03:59.657Z,77562.50
2022-09-05T06:06:54.849Z,77566.47
2022-09-05T06:14:48.078Z,77556.53
2022-09-05T06:14:57.754Z,77548.59
2022-09-05T06:16:21.411Z,77548.59
2022-09-05T06:19:15.063Z,77548.59
2022-09-05T06:22:20.558Z,77540.63
2022-09-05T06:25:18.207Z,77528.72
2022-09-05T06:28:19.247Z,77512.81
2022-09-05T06:31:31.316Z,77496.91
2022-09-05T06:33:57.384Z,77484.97
2022-09-05T06:36:43.994Z,77461.13
2022-09-05T06:39:25.794Z,77441.25
2022-09-05T06:42:10.142Z,77439.25
2022-09-05T06:45:34.363Z,77429.31
2022-09-05T06:48:47.041Z,77405.47
2022-09-05T06:51:21.359Z,77387.59
2022-09-05T06:53:58.115Z,77385.59
2022-09-05T06:56:27.654Z,77367.72
2022-09-05T06:59:20.384Z,77361.75
2022-09-05T07:02:08.675Z,77331.94
2022-09-05T07:05:23.768Z,77314.03
2022-09-05T07:07:46.123Z,77286.22
2022-09-05T07:10:39.873Z,77298.13
2022-09-05T07:13:11.734Z,77270.31
2022-09-05T07:15:53.536Z,77244.47
2022-09-05T07:18:30.307Z,77236.53
2022-09-05T07:21:16.790Z,77210.69
2022-09-05T07:24:10.128Z,77190.81
2022-09-05T07:26:53.957Z,77170.94
2022-09-05T07:29:49.716Z,77176.91
2022-09-05T07:32:31.277Z,77168.94
2022-09-05T07:35:01.516Z,77149.06
2022-09-05T07:37:38.682Z,77137.16
2022-09-05T07:40:25.039Z,77129.19
2022-09-05T07:43:10.020Z,77097.41
2022-09-05T07:45:55.693Z,77099.38
2022-09-05T07:48:34.585Z,77081.50
2022-09-05T07:55:54.686Z,77051.69
2022-09-05T07:57:16.121Z,77027.84
2022-09-05T07:59:56.188Z,77007.97
2022-09-05T08:02:23.227Z,76996.03
2022-09-05T08:04:50.308Z,76970.19
2022-09-05T08:07:47.549Z,76952.31
2022-09-05T08:10:18.367Z,76940.41
2022-09-05T08:13:23.724Z,76916.53
2022-09-05T08:16:09.822Z,76906.59
2022-09-05T08:18:46.240Z,76890.72
2022-09-05T08:21:29.867Z,76876.78
2022-09-05T08:24:24.709Z,76866.84
2022-09-05T08:26:51.222Z,76856.94
2022-09-05T08:29:46.919Z,76866.84
2022-09-05T08:32:39.045Z,76850.97
2022-09-05T08:35:17.231Z,76829.09
2022-09-05T08:37:45.413Z,76837.06
2022-09-05T08:41:06.489Z,76837.06
2022-09-05T08:46:35.160Z,76819.16
2022-09-05T08:46:44.900Z,76809.22
2022-09-05T08:49:39.437Z,76785.38
2022-09-05T08:52:30.791Z,76761.53
2022-09-05T08:55:06.538Z,76753.59
2022-09-05T08:58:06.400Z,76739.66
2022-09-05T09:00:41.745Z,76733.72
2022-09-05T09:03:28.525Z,76697.94
2022-09-05T09:06:11.973Z,76693.97
2022-09-05T09:09:16.635Z,76690.00
2022-09-05T09:11:57.666Z,76682.03
2022-09-05T09:14:32.803Z,76672.09
2022-09-05T09:17:21.632Z,76666.16
2022-09-05T09:19:55.382Z,76646.28
2022-09-05T09:22:41.247Z,76634.34
2022-09-05T09:25:22.259Z,76624.41
2022-09-05T09:28:47.670Z,76638.31
2022-09-05T09:31:11.209Z,76622.44
2022-09-05T09:34:23.114Z,76616.47
2022-09-05T09:37:35.321Z,76594.59
2022-09-05T09:40:35.165Z,76596.59
2022-09-05T09:43:27.645Z,76580.69
2022-09-05T09:46:03.473Z,76586.66
2022-09-05T09:48:49.767Z,76582.69
2022-09-05T09:51:36.099Z,76572.75
2022-09-05T09:54:17.494Z,76556.84
2022-09-05T09:57:10.391Z,76568.78
2022-09-05T10:00:02.915Z,76542.94
2022-09-05T10:06:30.262Z,76511.16
2022-09-05T10:10:44.653Z,76477.38
2022-09-05T10:10:47.956Z,76483.31
2022-09-05T10:12:09.312Z,76487.28
2022-09-05T10:14:58.999Z,76499.22
2022-09-05T10:17:35.655Z,76507.16
2022-09-05T10:20:26.153Z,76479.34
2022-09-05T10:23:33.249Z,76463.44
2022-09-05T10:26:48.029Z,76471.41
2022-09-05T10:29:37.078Z,76443.59
2022-09-05T10:35:08.237Z,76441.59
2022-09-05T10:35:22.638Z,76419.72
2022-09-05T10:38:18.925Z,76431.66
2022-09-05T10:41:22.587Z,76401.84
2022-09-05T10:44:02.959Z,76376.03
2022-09-05T10:46:52.693Z,76352.19
2022-09-05T10:49:30.324Z,76362.09
2022-09-05T10:52:18.989Z,76370.06
2022-09-05T10:55:14.561Z,76374.03
2022-09-05T10:58:22.078Z,76362.09
2022-09-05T11:02:29.926Z,76332.31
2022-09-05T11:04:26.619Z,76310.44
2022-09-05T11:07:31.651Z,76304.50
2022-09-05T11:10:20.493Z,76292.56
2022-09-05T11:13:04.650Z,76282.63
2022-09-05T11:16:03.696Z,76268.72
2022-09-05T11:18:55.391Z,76268.72
2022-09-05T11:21:29.401Z,76288.59
2022-09-05T11:24:00.898Z,76286.59
2022-09-05T11:26:33.310Z,76292.56
2022-09-05T11:29:12.136Z,76266.72
2022-09-05T11:34:22.703Z,76230.97
2022-09-05T11:39:59.728Z,76223.03
2022-09-05T11:40:10.269Z,76201.16
2022-09-05T11:41:08.471Z,76246.88
2022-09-05T11:43:42.057Z,76254.81
2022-09-05T11:46:12.238Z,76246.88
2022-09-05T11:49:32.977Z,76225.00
2022-09-05T11:52:17.134Z,76230.97
2022-09-05T11:55:08.476Z,76240.91
2022-09-05T11:58:44.253Z,76215.06
2022-09-05T12:01:41.591Z,76213.09
2022-09-05T12:04:36.383Z,76191.22
2022-09-05T12:07:37.340Z,76211.09
2022-09-05T12:10:46.774Z,76227.00
2022-09-05T12:13:31.372Z,76238.91
2022-09-05T12:16:08.142Z,76240.91
2022-09-05T12:18:55.132Z,76234.94
2022-09-05T12:21:38.279Z,76254.81
2022-09-05T12:25:24.293Z,76258.78
2022-09-05T12:27:38.757Z,76232.94
2022-09-05T12:30:07.512Z,76223.03
2022-09-05T12:35:19.680Z,76219.03
2022-09-05T12:36:04.778Z,76209.09
2022-09-05T12:40:55.325Z,76205.13
2022-09-05T12:42:10.252Z,76163.41
2022-09-05T12:44:51.805Z,76219.03
2022-09-05T12:47:23.111Z,76223.03
2022-09-05T12:50:03.557Z,76215.06
2022-09-05T12:52:46.458Z,76221.03
2022-09-05T12:55:33.489Z,76209.09
2022-09-05T13:03:05.122Z,76189.25
2022-09-05T13:03:06.942Z,76167.38
2022-09-05T13:06:53.533Z,76159.44
2022-09-05T13:11:32.222Z,76183.28
2022-09-05T13:14:56.212Z,76159.44
2022-09-05T13:15:40.300Z,76173.34
2022-09-05T13:18:21.236Z,76165.41
2022-09-05T13:21:15.716Z,76169.38
2022-09-05T13:24:10.028Z,76165.41
2022-09-05T13:26:41.504Z,76183.28
2022-09-05T13:29:18.618Z,76169.38
2022-09-05T13:38:04.483Z,76167.38
2022-09-05T13:38:04.723Z,76149.50
2022-09-05T13:38:07.302Z,76165.41
2022-09-05T13:40:27.534Z,76151.50
2022-09-05T13:43:09.302Z,76163.41
2022-09-05T13:46:06.369Z,76165.41
2022-09-05T13:51:51.230Z,76155.47
2022-09-05T13:54:51.048Z,76151.50
2022-09-05T13:57:31.608Z,76165.41
2022-09-05T14:00:15.345Z,76141.56
2022-09-05T14:03:38.731Z,76125.66
2022-09-05T14:06:47.639Z,76127.66
2022-09-05T14:09:41.114Z,76113.75
2022-09-05T14:12:29.572Z,76121.69
2022-09-05T14:15:10.633Z,76131.63
2022-09-05T14:17:55.748Z,76119.69
2022-09-05T14:20:49.362Z,76131.63
2022-09-05T14:23:17.796Z,76135.59
2022-09-05T14:26:00.494Z,76143.53
2022-09-05T14:28:40.823Z,76153.47
2022-09-05T14:33:56.599Z,76201.16
2022-09-05T14:37:50.298Z,76215.06
2022-09-05T14:38:01.610Z,76236.94
2022-09-05T14:40:29.675Z,76177.31
2022-09-05T14:43:17.490Z,76151.50
2022-09-05T14:46:24.557Z,76097.84
2022-09-05T14:49:19.315Z,76074.00
2022-09-05T14:51:48.604Z,76034.25
2022-09-05T15:02:43.175Z,76048.16
2022-09-05T15:02:53.746Z,76064.06
2022-09-05T15:03:09.196Z,76042.22
2022-09-05T15:05:45.607Z,75926.97
2022-09-05T15:11:03.283Z,75823.66
2022-09-05T15:12:21.894Z,75684.59
2022-09-05T15:14:11.146Z,75634.94
2022-09-05T15:16:43.579Z,75571.34
2022-09-05T15:19:11.330Z,75541.56
2022-09-05T15:21:41.497Z,75523.69
2022-09-05T15:24:21.501Z,75513.75
2022-09-05T15:26:56.210Z,75549.50
2022-09-05T15:29:34.421Z,75491.88
2022-09-05T15:32:26.404Z,75487.91
2022-09-05T15:34:56.325Z,75452.16
2022-09-05T15:37:25.661Z,75559.44
2022-09-05T15:40:12.288Z,75621.03
2022-09-05T15:43:02.177Z,75589.22
2022-09-05T15:45:37.388Z,75521.69
2022-09-05T15:48:16.350Z,75531.63
2022-09-05T15:50:52.370Z,75577.31
2022-09-05T15:53:26.136Z,75603.13
2022-09-05T15:56:00.855Z,75648.84
2022-09-05T15:58:52.241Z,75642.88
2022-09-05T16:10:27.268Z,75787.91
2022-09-05T16:10:49.484Z,75994.53
2022-09-05T16:10:50.848Z,75863.41
2022-09-05T16:12:56.601Z,76113.75
2022-09-05T16:21:38.347Z,76165.41
2022-09-05T16:23:24.621Z,76225.00
2022-09-05T16:23:25.292Z,76254.81
2022-09-05T16:24:24.805Z,76272.69
2022-09-05T16:27:07.894Z,76296.53
2022-09-05T16:29:46.419Z,76320.38
2022-09-05T16:32:27.840Z,76324.34
2022-09-05T16:35:07.888Z,76336.28
2022-09-05T16:37:44.339Z,76354.16
2022-09-05T16:40:51.860Z,76344.22
2022-09-05T16:43:30.485Z,76372.03
2022-09-05T16:46:16.944Z,76393.91
2022-09-05T16:48:56.630Z,76397.88
2022-09-05T16:51:42.763Z,76407.81
2022-09-05T16:54:30.939Z,76419.72
2022-09-05T16:57:02.743Z,76441.59
2022-09-05T16:59:32.748Z,76451.53
2022-09-05T17:02:21.643Z,76461.47
2022-09-05T17:05:23.803Z,76481.34
2022-09-05T17:08:11.753Z,76483.31
2022-09-05T17:10:58.235Z,76489.28
2022-09-05T17:13:48.102Z,76499.22
2022-09-05T17:16:21.689Z,76519.09
2022-09-05T17:18:53.315Z,76536.97
2022-09-05T17:21:40.288Z,76546.91
2022-09-05T17:29:17.231Z,76566.78
2022-09-05T17:29:24.241Z,76562.81
2022-09-05T17:32:53.848Z,76576.72
2022-09-05T17:35:54.306Z,76592.63
2022-09-05T17:38:56.744Z,76600.56
2022-09-05T17:41:43.298Z,76622.44
2022-09-05T17:44:19.417Z,76636.34
2022-09-05T17:46:57.578Z,76660.19
2022-09-05T17:49:45.405Z,76674.09
2022-09-05T17:52:17.479Z,76691.97
2022-09-05T17:54:52.522Z,76703.91
2022-09-05T17:57:27.975Z,76709.88
2022-09-05T18:00:07.026Z,76729.75
2022-09-05T18:02:54.618Z,76749.59
2022-09-05T18:06:01.062Z,76757.56
2022-09-05T18:08:46.233Z,76771.47
2022-09-05T18:11:25.178Z,76787.38
2022-09-05T18:14:24.437Z,76789.34
2022-09-05T18:17:36.998Z,76803.25
2022-09-05T18:19:41.498Z,76799.28
2022-09-05T18:22:32.890Z,76813.19
2022-09-05T18:25:27.757Z,76821.16
2022-09-05T18:28:13.992Z,76835.06
2022-09-05T18:30:40.523Z,76845.00
2022-09-05T18:33:56.407Z,76854.94
2022-09-05T18:35:57.953Z,76852.94
2022-09-05T18:38:50.093Z,76876.78
2022-09-05T18:41:21.614Z,76872.81
2022-09-05T18:44:12.967Z,76890.72
2022-09-05T18:46:54.652Z,76896.66
2022-09-05T18:50:21.450Z,76910.59
2022-09-05T18:52:44.119Z,76920.53
2022-09-05T18:56:11.617Z,76922.50
2022-09-05T18:58:11.831Z,76938.41
2022-09-05T19:00:46.960Z,76940.41
2022-09-05T19:03:30.655Z,76936.41
2022-09-05T19:06:36.200Z,76938.41
2022-09-05T19:08:56.039Z,76964.25
2022-09-05T19:11:28.946Z,76974.19
2022-09-05T19:14:25.625Z,76986.09
2022-09-05T19:16:48.499Z,76988.09
2022-09-05T19:19:19.355Z,77002.00
2022-09-05T19:22:54.136Z,77000.00
2022-09-05T19:24:46.187Z,77011.94
2022-09-05T19:28:01.482Z,77011.94
2022-09-05T19:36:44.206Z,77007.97
2022-09-05T19:37:03.614Z,77005.97
2022-09-05T19:37:12.348Z,77019.88
2022-09-05T19:38:26.756Z,77025.84
2022-09-05T19:47:30.901Z,77029.81
2022-09-05T19:47:37.065Z,77033.81
2022-09-05T19:47:50.280Z,77035.78
2022-09-05T19:49:58.076Z,77045.72
2022-09-05T19:52:24.829Z,77053.69
2022-09-05T19:54:54.703Z,77063.63
2022-09-05T19:57:21.328Z,77067.59
2022-09-05T19:59:54.088Z,77059.63
2022-09-05T20:02:33.325Z,77067.59
2022-09-05T20:05:02.836Z,77049.69
2022-09-05T20:07:32.167Z,77059.63
2022-09-05T20:10:02.430Z,77059.63
2022-09-05T20:12:35.071Z,77041.75
2022-09-05T20:15:25.324Z,77053.69
2022-09-05T20:18:24.719Z,77051.69
2022-09-05T20:21:12.139Z,77047.72
2022-09-05T20:23:43.577Z,77047.72
2022-09-05T20:26:11.396Z,77057.66
2022-09-05T20:28:40.894Z,77049.69
2022-09-05T20:31:27.674Z,77043.75
2022-09-05T20:34:03.355Z,77043.75
2022-09-05T20:43:10.689Z,77041.75
2022-09-05T20:43:19.077Z,77035.78
2022-09-05T20:43:30.954Z,77037.78
2022-09-05T20:46:21.155Z,77031.81
2022-09-05T20:54:09.582Z,77035.78
2022-09-05T20:54:15.234Z,77019.88
2022-09-05T20:54:41.991Z,77021.88
2022-09-05T20:57:20.025Z,77025.84
2022-09-05T20:59:47.351Z,77023.88
2022-09-05T21:02:34.224Z,77041.75
2022-09-05T21:05:06.730Z,77045.72
2022-09-05T21:08:01.102Z,77053.69
2022-09-05T21:10:47.202Z,77057.66
2022-09-05T21:13:27.898Z,77055.66
2022-09-05T21:15:55.751Z,77069.56
2022-09-05T21:18:33.452Z,77073.56
2022-09-05T21:21:28.194Z,77079.50
2022-09-05T21:24:16.924Z,77083.50
2022-09-05T21:26:46.485Z,77085.47
2022-09-05T21:29:12.927Z,77101.38
2022-09-05T21:31:54.402Z,77097.41
2022-09-05T21:34:29.906Z,77099.38
2022-09-05T21:37:06.629Z,77099.38
2022-09-05T21:39:46.763Z,77103.38
2022-09-05T21:44:07.377Z,77115.28
2022-09-05T21:47:41.845Z,77117.28
2022-09-05T21:48:06.531Z,77111.31
2022-09-05T21:50:41.223Z,77139.13
2022-09-05T21:58:27.813Z,77141.13
2022-09-05T21:59:26.794Z,77129.19
2022-09-05T21:59:29.146Z,77143.13
2022-09-05T22:01:52.305Z,77143.13
2022-09-05T22:04:22.078Z,77151.06
2022-09-05T22:06:49.383Z,77151.06
2022-09-05T22:09:20.990Z,77163.00
2022-09-05T22:11:50.731Z,77164.97
2022-09-05T22:14:22.840Z,77170.94
2022-09-05T22:16:51.903Z,77164.97
2022-09-05T22:19:36.979Z,77182.88
2022-09-05T22:22:16.288Z,77182.88
2022-09-05T22:25:06.280Z,77182.88
2022-09-05T22:27:34.819Z,77182.88
2022-09-05T22:30:01.944Z,77174.91
2022-09-05T22:32:34.983Z,77198.75
2022-09-05T22:35:26.931Z,77202.75
2022-09-05T22:37:59.180Z,77208.69
2022-09-05T22:40:27.009Z,77208.69
2022-09-05T22:43:02.067Z,77216.66
2022-09-05T22:45:30.117Z,77226.59
2022-09-05T22:47:57.413Z,77228.56
2022-09-05T22:50:24.773Z,77234.53
2022-09-05T22:52:51.831Z,77234.53
2022-09-05T22:55:18.844Z,77242.50
2022-09-05T22:57:45.385Z,77244.47
2022-09-05T23:00:12.168Z,77246.47
2022-09-05T23:02:38.751Z,77254.41
2022-09-05T23:05:06.014Z,77258.38
2022-09-05T23:07:32.971Z,77250.44
2022-09-05T23:09:59.896Z,77250.44
2022-09-05T23:12:26.912Z,77252.44
2022-09-05T23:14:53.814Z,77262.38
2022-09-05T23:17:20.439Z,77278.25
2022-09-05T23:19:47.107Z,77280.25
2022-09-05T23:22:13.687Z,77272.31
2022-09-05T23:24:40.288Z,77274.28
2022-09-05T23:27:06.810Z,77278.25
2022-09-05T23:29:33.484Z,77298.13
2022-09-05T23:32:00.358Z,77294.16
2022-09-05T23:34:26.931Z,77296.16
2022-09-05T23:36:53.571Z,77300.13
2022-09-05T23:39:20.077Z,77294.16
2022-09-05T23:41:46.704Z,77302.13
2022-09-05T23:44:13.215Z,77300.13
2022-09-05T23:46:40.424Z,77298.13
2022-09-05T23:49:07.425Z,77300.13
2022-09-05T23:51:34.295Z,77304.09
2022-09-05T23:54:00.849Z,77310.06
2022-09-05T23:56:27.446Z,77312.06
2022-09-05T23:58:54.071Z,77314.03
